Time;durP1;ratioP1;P1;durP2;ratioP2;P2;SDS_P1;SDS_P2;PMS_P1;PMS_P2;Temp;Humidity;BMP_temperature;BMP_pressure;BME280_temperature;BME280_humidity;BME280_pressure;Samples;Min_cycle;Max_cycle;Signal;HPM_P1;HPM_P2
2023/12/11 00:00:47;;;;;;;26.83;4.18;;;10.10;99.90;;;;;;5023438;28;20268;-40
2023/12/11 00:03:13;;;;;;;30.83;4.85;;;10.10;99.90;;;;;;5023068;28;20545;-42
2023/12/11 00:05:39;;;;;;;35.92;5.30;;;10.00;99.90;;;;;;5023217;28;20245;-38
2023/12/11 00:08:06;;;;;;;32.20;4.85;;;10.00;99.90;;;;;;5021962;28;20196;-39
2023/12/11 00:10:32;;;;;;;35.42;5.53;;;9.90;99.90;;;;;;5054762;28;20235;-39
2023/12/11 00:12:58;;;;;;;36.85;5.53;;;9.90;99.90;;;;;;5022202;28;20227;-40
2023/12/11 00:15:24;;;;;;;40.58;5.50;;;9.80;99.90;;;;;;5022056;28;20563;-42
2023/12/11 00:17:50;;;;;;;40.70;5.30;;;9.70;99.90;;;;;;5022801;28;20184;-40
2023/12/11 00:20:16;;;;;;;40.67;5.57;;;9.70;99.90;;;;;;5054489;28;20195;-40
2023/12/11 00:22:42;;;;;;;36.55;5.00;;;9.60;99.90;;;;;;5023375;28;20251;-36
2023/12/11 00:25:08;;;;;;;32.00;5.20;;;9.60;99.90;;;;;;5023184;28;20188;-36
2023/12/11 00:27:34;;;;;;;39.28;5.47;;;9.60;99.90;;;;;;5021702;28;20635;-37
2023/12/11 00:30:00;;;;;;;42.85;6.00;;;9.50;99.90;;;;;;5022536;28;20179;-38
2023/12/11 00:32:26;;;;;;;38.75;5.80;;;9.50;99.90;;;;;;5022731;28;20569;-40
2023/12/11 00:34:52;;;;;;;46.60;6.25;;;9.50;99.90;;;;;;5021290;28;20501;-40
2023/12/11 00:37:17;;;;;;;48.95;6.75;;;9.50;99.90;;;;;;5022857;28;20192;-38
2023/12/11 00:39:43;;;;;;;39.33;6.25;;;9.50;99.90;;;;;;5022526;28;20672;-38
2023/12/11 00:42:09;;;;;;;49.38;6.32;;;9.50;99.90;;;;;;5021573;28;20286;-41
2023/12/11 00:44:39;;;;;;;47.10;6.68;;;9.50;99.90;;;;;;5021367;28;20195;-44
2023/12/11 00:47:05;;;;;;;33.78;5.72;;;9.50;99.90;;;;;;5022499;28;20219;-42
2023/12/11 00:49:31;;;;;;;60.35;7.75;;;9.50;99.90;;;;;;5022093;28;20276;-40
2023/12/11 00:51:57;;;;;;;42.65;6.07;;;9.60;99.90;;;;;;5017334;28;20234;-37
2023/12/11 00:54:24;;;;;;;42.53;6.50;;;9.60;99.90;;;;;;5022414;28;20718;-40
2023/12/11 00:56:50;;;;;;;43.78;6.63;;;9.60;99.90;;;;;;5022352;28;20191;-39
2023/12/11 00:59:15;;;;;;;60.58;6.95;;;9.60;99.90;;;;;;5022365;28;20887;-40
2023/12/11 01:01:42;;;;;;;56.40;7.35;;;9.70;99.90;;;;;;5022040;28;20192;-38
2023/12/11 01:04:08;;;;;;;50.67;6.90;;;9.60;99.90;;;;;;5054279;28;20187;-42
2023/12/11 01:06:34;;;;;;;54.25;7.80;;;9.70;99.90;;;;;;5004294;28;20195;-42
2023/12/11 01:09:00;;;;;;;51.03;7.22;;;9.70;99.90;;;;;;5054726;28;20192;-35
2023/12/11 01:11:26;;;;;;;46.28;7.20;;;9.70;99.90;;;;;;5021234;28;20223;-45
2023/12/11 01:13:52;;;;;;;51.20;6.95;;;9.70;99.90;;;;;;5021987;28;20216;-42
2023/12/11 01:16:18;;;;;;;64.97;7.93;;;9.80;99.90;;;;;;5021767;28;20184;-40
2023/12/11 01:18:44;;;;;;;52.95;7.00;;;9.80;99.90;;;;;;5022442;28;20251;-36
2023/12/11 01:21:10;;;;;;;43.20;6.95;;;9.80;99.90;;;;;;5036836;28;20583;-40
2023/12/11 01:23:36;;;;;;;46.97;6.47;;;9.90;99.90;;;;;;5021610;28;20632;-36
2023/12/11 01:26:02;;;;;;;52.85;7.25;;;9.90;99.90;;;;;;5037020;28;20188;-38
2023/12/11 01:28:28;;;;;;;45.05;6.78;;;9.90;99.90;;;;;;5022193;28;20192;-36
2023/12/11 01:30:54;;;;;;;49.88;6.70;;;9.90;99.90;;;;;;5021809;28;20183;-43
2023/12/11 01:33:20;;;;;;;45.95;7.05;;;10.00;99.90;;;;;;5021930;28;20621;-35
2023/12/11 01:35:46;;;;;;;39.67;6.22;;;10.00;99.90;;;;;;5021430;28;20196;-40
2023/12/11 01:38:12;;;;;;;36.30;6.00;;;10.00;99.90;;;;;;5020462;28;20203;-38
2023/12/11 01:40:38;;;;;;;40.05;6.30;;;10.00;99.90;;;;;;5021405;28;20179;-37
2023/12/11 01:43:14;;;;;;;47.95;6.10;;;10.00;99.90;;;;;;5020489;28;20753;-38
2023/12/11 01:45:40;;;;;;;61.65;7.28;;;10.00;99.90;;;;;;5021439;28;20218;-37
2023/12/11 01:48:08;;;;;;;57.95;7.75;;;10.00;99.90;;;;;;5053438;28;20199;-39
2023/12/11 01:50:34;;;;;;;46.42;6.70;;;10.00;99.90;;;;;;5021535;28;20184;-44
2023/12/11 01:53:01;;;;;;;41.95;6.97;;;9.90;99.90;;;;;;5021661;28;20581;-39
2023/12/11 01:55:30;;;;;;;47.72;7.15;;;10.00;99.90;;;;;;5021073;28;20196;-37
2023/12/11 01:57:56;;;;;;;43.83;5.93;;;9.90;99.90;;;;;;5022363;28;20176;-40
2023/12/11 02:00:23;;;;;;;49.13;6.68;;;9.90;99.90;;;;;;5021189;28;20830;-38
2023/12/11 02:02:50;;;;;;;42.67;6.22;;;10.00;99.90;;;;;;5021577;28;20270;-44
2023/12/11 02:05:16;;;;;;;46.88;5.90;;;10.00;99.90;;;;;;5020991;28;20184;-40
2023/12/11 02:07:42;;;;;;;49.92;6.45;;;10.00;99.90;;;;;;5019740;28;21368;-46
2023/12/11 02:10:09;;;;;;;40.45;6.15;;;10.00;99.90;;;;;;5021121;28;20223;-37
2023/12/11 02:12:35;;;;;;;41.65;5.90;;;10.10;99.90;;;;;;5021056;28;20200;-40
2023/12/11 02:15:00;;;;;;;41.65;6.40;;;10.10;99.90;;;;;;5052664;28;20257;-40
2023/12/11 02:17:26;;;;;;;37.50;6.10;;;10.10;99.90;;;;;;5020741;28;20273;-36
2023/12/11 02:19:53;;;;;;;44.28;6.40;;;10.00;99.90;;;;;;5019756;28;20660;-41
2023/12/11 02:22:19;;;;;;;44.55;6.78;;;10.10;99.90;;;;;;5019995;28;20188;-38
2023/12/11 02:24:51;;;;;;;41.88;6.53;;;10.00;99.90;;;;;;5021125;28;20195;-40
2023/12/11 02:27:17;;;;;;;44.08;6.13;;;10.00;99.90;;;;;;5021072;28;20196;-40
2023/12/11 02:29:43;;;;;;;45.70;6.68;;;10.00;99.90;;;;;;5052363;28;20275;-40
2023/12/11 02:32:09;;;;;;;34.28;5.68;;;9.90;99.90;;;;;;5020990;28;20271;-41
2023/12/11 02:34:35;;;;;;;39.58;5.95;;;10.00;99.90;;;;;;5020852;28;20242;-40
2023/12/11 02:37:01;;;;;;;44.03;6.53;;;9.90;99.90;;;;;;5021203;28;20291;-42
2023/12/11 02:39:27;;;;;;;43.78;6.50;;;9.90;99.90;;;;;;5020671;28;20275;-41
2023/12/11 02:41:53;;;;;;;41.83;6.18;;;10.00;99.90;;;;;;5020818;28;20537;-39
2023/12/11 02:44:19;;;;;;;51.25;7.38;;;9.90;99.90;;;;;;5051731;28;20195;-38
2023/12/11 02:46:45;;;;;;;48.40;6.30;;;9.90;99.90;;;;;;5052082;28;20219;-37
2023/12/11 02:49:11;;;;;;;52.00;7.28;;;9.90;99.90;;;;;;5020363;28;20206;-41
2023/12/11 02:51:37;;;;;;;47.75;6.60;;;9.90;99.90;;;;;;5035838;28;21367;-42
2023/12/11 02:54:02;;;;;;;45.88;6.07;;;10.00;99.90;;;;;;5023361;28;20251;-42
2023/12/11 02:56:28;;;;;;;47.70;6.40;;;9.90;99.90;;;;;;5024715;28;20568;-38
2023/12/11 02:58:54;;;;;;;49.35;7.18;;;10.00;99.90;;;;;;5024019;28;20184;-37
2023/12/11 03:01:20;;;;;;;40.67;6.38;;;10.00;99.90;;;;;;5025099;28;20187;-40
2023/12/11 03:03:46;;;;;;;60.25;7.60;;;10.00;99.90;;;;;;5024807;28;20192;-41
2023/12/11 03:06:21;;;;;;;45.50;6.90;;;10.00;99.90;;;;;;5024625;28;20187;-39
2023/12/11 03:08:47;;;;;;;56.80;7.55;;;10.00;99.90;;;;;;5024503;28;20183;-39
2023/12/11 03:11:13;;;;;;;44.85;7.22;;;10.10;99.90;;;;;;5024365;28;20214;-36
2023/12/11 03:13:39;;;;;;;50.78;6.53;;;10.10;99.90;;;;;;5024232;28;20618;-39
2023/12/11 03:16:05;;;;;;;53.38;7.68;;;10.10;99.90;;;;;;5023264;28;20184;-39
2023/12/11 03:18:31;;;;;;;48.63;6.63;;;10.10;99.90;;;;;;5024253;28;20282;-39
2023/12/11 03:20:57;;;;;;;46.15;7.20;;;10.10;99.90;;;;;;5022653;28;20628;-43
2023/12/11 03:23:23;;;;;;;43.85;6.80;;;10.10;99.90;;;;;;5024196;28;20728;-45
2023/12/11 03:25:49;;;;;;;45.53;6.75;;;10.10;99.90;;;;;;5024805;28;20322;-39
2023/12/11 03:28:15;;;;;;;51.63;8.38;;;10.10;99.90;;;;;;5022858;28;20195;-41
2023/12/11 03:30:41;;;;;;;54.58;6.53;;;10.20;99.90;;;;;;5024620;28;20184;-40
2023/12/11 03:33:07;;;;;;;50.75;7.55;;;10.20;99.90;;;;;;5023783;28;20297;-43
2023/12/11 03:35:33;;;;;;;55.95;7.60;;;10.20;99.90;;;;;;5024198;28;20230;-37
2023/12/11 03:37:59;;;;;;;55.90;7.47;;;10.20;99.90;;;;;;5023755;28;20206;-38
2023/12/11 03:40:25;;;;;;;50.45;7.20;;;10.20;99.90;;;;;;5024173;28;20210;-39
2023/12/11 03:42:51;;;;;;;49.53;7.28;;;10.20;99.90;;;;;;5023977;28;20192;-43
2023/12/11 03:45:17;;;;;;;54.08;6.97;;;10.20;99.90;;;;;;5023693;28;20283;-35
2023/12/11 03:47:43;;;;;;;66.97;7.68;;;10.20;99.90;;;;;;5024160;28;20188;-38
2023/12/11 03:50:09;;;;;;;52.10;7.07;;;10.20;99.90;;;;;;5024027;28;20196;-40
2023/12/11 03:52:35;;;;;;;45.42;7.20;;;10.20;99.90;;;;;;5024189;28;20229;-41
2023/12/11 03:55:01;;;;;;;57.28;7.43;;;10.20;99.90;;;;;;5023822;28;20545;-37
2023/12/11 03:57:27;;;;;;;52.17;7.15;;;10.30;99.90;;;;;;5038018;28;20199;-39
2023/12/11 03:59:52;;;;;;;48.17;7.22;;;10.30;99.90;;;;;;5024158;28;20204;-39
2023/12/11 04:02:18;;;;;;;61.50;7.43;;;10.30;99.90;;;;;;5023542;28;20203;-45
2023/12/11 04:04:44;;;;;;;43.97;7.07;;;10.30;99.90;;;;;;5023027;28;20196;-40
2023/12/11 04:07:10;;;;;;;47.13;6.82;;;10.30;99.90;;;;;;5021891;28;20200;-38
2023/12/11 04:09:36;;;;;;;52.13;7.00;;;10.30;99.90;;;;;;5021601;28;20687;-38
2023/12/11 04:12:03;;;;;;;45.72;7.88;;;10.30;99.90;;;;;;5021750;28;20215;-45
2023/12/11 04:14:29;;;;;;;53.20;7.82;;;10.30;99.90;;;;;;5022988;28;20215;-45
2023/12/11 04:16:55;;;;;;;45.58;7.15;;;10.30;99.90;;;;;;5055137;28;20203;-36
2023/12/11 04:19:21;;;;;;;55.85;7.50;;;10.30;99.90;;;;;;5023231;28;20250;-37
2023/12/11 04:21:47;;;;;;;59.90;8.13;;;10.30;99.90;;;;;;5023066;28;20520;-41
2023/12/11 04:24:13;;;;;;;57.10;7.90;;;10.30;99.90;;;;;;5023083;28;20192;-37
2023/12/11 04:26:39;;;;;;;48.15;7.20;;;10.30;99.90;;;;;;5022645;28;20196;-38
2023/12/11 04:29:05;;;;;;;50.40;6.85;;;10.40;99.90;;;;;;5023424;28;20275;-36
2023/12/11 04:31:31;;;;;;;49.42;7.25;;;10.40;99.90;;;;;;5021394;28;20210;-37
2023/12/11 04:33:57;;;;;;;51.80;7.80;;;10.30;99.90;;;;;;5023069;28;20818;-41
2023/12/11 04:36:23;;;;;;;58.38;8.43;;;10.30;99.90;;;;;;5022930;28;20229;-37
2023/12/11 04:38:49;;;;;;;56.92;8.10;;;10.40;99.90;;;;;;5022662;28;20188;-41
2023/12/11 04:41:15;;;;;;;54.35;7.97;;;10.40;99.90;;;;;;5022949;28;20262;-41
2023/12/11 04:43:41;;;;;;;56.65;7.90;;;10.30;99.90;;;;;;5023411;28;20636;-39
2023/12/11 04:46:07;;;;;;;59.42;7.45;;;10.30;99.90;;;;;;5022370;28;20271;-41
2023/12/11 04:48:32;;;;;;;58.13;7.30;;;10.30;99.90;;;;;;5022366;28;20556;-41
2023/12/11 04:50:58;;;;;;;51.03;7.45;;;10.30;99.90;;;;;;5021192;28;20192;-37
2023/12/11 04:53:24;;;;;;;41.67;6.65;;;10.30;99.90;;;;;;5022738;28;20673;-37
2023/12/11 04:55:50;;;;;;;53.65;7.53;;;10.30;99.90;;;;;;5022162;28;20194;-37
2023/12/11 04:58:16;;;;;;;52.97;7.80;;;10.30;99.90;;;;;;5022473;28;20241;-38
2023/12/11 05:00:42;;;;;;;51.63;7.50;;;10.30;99.90;;;;;;5022783;28;20195;-42
2023/12/11 05:03:08;;;;;;;45.30;6.82;;;10.40;99.90;;;;;;5021587;28;20230;-43
2023/12/11 05:05:35;;;;;;;45.53;6.90;;;10.40;99.90;;;;;;5022218;28;20199;-40
2023/12/11 05:08:01;;;;;;;51.78;7.22;;;10.40;99.90;;;;;;5022401;28;20299;-37
2023/12/11 05:10:28;;;;;;;46.58;6.72;;;10.40;99.90;;;;;;5022592;28;20246;-38
2023/12/11 05:12:54;;;;;;;37.22;5.85;;;10.40;99.90;;;;;;5021504;28;20269;-40
2023/12/11 05:15:20;;;;;;;54.35;6.20;;;10.40;99.90;;;;;;5008948;28;20196;-41
2023/12/11 05:17:46;;;;;;;47.35;6.70;;;10.30;99.90;;;;;;5022248;28;20322;-42
2023/12/11 05:20:12;;;;;;;53.92;6.82;;;10.30;99.90;;;;;;5022019;28;20188;-42
2023/12/11 05:22:39;;;;;;;48.95;6.57;;;10.30;99.90;;;;;;5021282;28;20274;-38
2023/12/11 05:25:05;;;;;;;53.15;7.25;;;10.30;99.90;;;;;;5021801;28;20196;-41
2023/12/11 05:27:31;;;;;;;46.78;6.22;;;10.30;99.90;;;;;;5021784;28;20191;-38
2023/12/11 05:29:57;;;;;;;49.15;6.38;;;10.30;99.90;;;;;;5021838;28;20191;-39
2023/12/11 05:32:23;;;;;;;45.88;6.60;;;10.30;99.90;;;;;;5021450;28;20188;-39
2023/12/11 05:34:49;;;;;;;45.72;6.78;;;10.30;99.90;;;;;;5021395;28;20270;-41
2023/12/11 05:37:15;;;;;;;47.42;6.47;;;10.30;99.90;;;;;;5021363;28;20211;-39
2023/12/11 05:39:40;;;;;;;44.47;7.05;;;10.30;99.90;;;;;;5022059;28;20672;-40
2023/12/11 05:42:06;;;;;;;46.40;6.60;;;10.30;99.90;;;;;;5020508;28;20282;-45
2023/12/11 05:44:32;;;;;;;47.70;6.97;;;10.30;99.90;;;;;;5021759;28;20211;-34
2023/12/11 05:46:58;;;;;;;46.40;6.80;;;10.30;99.90;;;;;;5021294;28;20207;-38
2023/12/11 05:49:24;;;;;;;45.65;6.70;;;10.30;99.90;;;;;;5021373;28;20667;-38
2023/12/11 05:51:50;;;;;;;43.28;6.55;;;10.40;99.90;;;;;;5020153;28;20610;-33
2023/12/11 05:54:16;;;;;;;48.20;6.25;;;10.40;99.90;;;;;;5021243;28;20331;-37
2023/12/11 05:56:42;;;;;;;32.88;5.53;;;10.40;99.90;;;;;;5021238;28;20188;-39
2023/12/11 05:59:08;;;;;;;48.60;6.88;;;10.40;99.90;;;;;;5021632;28;20200;-37
2023/12/11 06:01:34;;;;;;;49.63;7.13;;;10.30;99.90;;;;;;5020984;28;20239;-39
2023/12/11 06:04:00;;;;;;;54.08;7.22;;;10.30;99.90;;;;;;5021477;28;20283;-41
2023/12/11 06:06:27;;;;;;;42.28;6.10;;;10.30;99.90;;;;;;5021682;28;20195;-36
2023/12/11 06:08:53;;;;;;;44.33;6.30;;;10.30;99.90;;;;;;5020903;28;20679;-38
2023/12/11 06:11:19;;;;;;;46.78;6.85;;;10.20;99.90;;;;;;5021608;28;20231;-37
2023/12/11 06:13:45;;;;;;;39.58;5.82;;;10.10;99.90;;;;;;5020811;28;20688;-41
2023/12/11 06:16:11;;;;;;;51.28;5.90;;;10.10;99.90;;;;;;5021370;28;20202;-38
2023/12/11 06:18:38;;;;;;;44.70;6.10;;;10.10;99.90;;;;;;5052345;28;20555;-38
2023/12/11 06:21:05;;;;;;;45.53;6.32;;;10.10;99.90;;;;;;5021276;28;20189;-38
2023/12/11 06:23:30;;;;;;;32.60;6.20;;;10.10;99.90;;;;;;5021342;28;20591;-41
2023/12/11 06:25:56;;;;;;;38.33;5.57;;;10.10;99.90;;;;;;5020189;28;20176;-37
2023/12/11 06:28:22;;;;;;;48.78;6.88;;;10.10;99.90;;;;;;5019871;28;20195;-41
2023/12/11 06:30:48;;;;;;;42.35;5.70;;;10.10;99.90;;;;;;5019945;28;20203;-39
2023/12/11 06:33:15;;;;;;;40.38;5.82;;;10.10;99.90;;;;;;5020626;28;20215;-35
2023/12/11 06:35:41;;;;;;;43.58;5.78;;;10.10;99.90;;;;;;5052668;28;20191;-39
2023/12/11 06:38:06;;;;;;;38.15;5.50;;;10.10;99.90;;;;;;5020729;28;20191;-36
2023/12/11 06:40:32;;;;;;;39.50;6.35;;;10.10;99.90;;;;;;5019023;28;20674;-37
2023/12/11 06:42:58;;;;;;;37.83;5.97;;;10.10;99.90;;;;;;5020305;28;20941;-43
2023/12/11 06:45:24;;;;;;;43.03;6.00;;;10.00;99.90;;;;;;5020359;28;20976;-39
2023/12/11 06:47:50;;;;;;;42.13;5.97;;;10.00;99.90;;;;;;5020435;28;20334;-39
2023/12/11 06:50:19;;;;;;;35.70;6.07;;;10.10;99.90;;;;;;5019956;28;20199;-35
2023/12/11 06:52:46;;;;;;;41.80;5.85;;;10.10;99.90;;;;;;5018588;28;20210;-40
2023/12/11 06:55:11;;;;;;;35.78;5.97;;;10.10;99.90;;;;;;5019520;28;20188;-37
2023/12/11 06:57:38;;;;;;;35.67;5.35;;;10.00;99.90;;;;;;5019375;28;20203;-36
2023/12/11 07:00:05;;;;;;;38.63;5.85;;;10.00;99.90;;;;;;5018813;28;20187;-39
2023/12/11 07:02:31;;;;;;;42.72;6.22;;;10.00;99.90;;;;;;5020497;28;20621;-40
2023/12/11 07:04:57;;;;;;;33.50;5.00;;;10.10;99.90;;;;;;5007670;28;20192;-36
2023/12/11 07:07:23;;;;;;;35.35;5.47;;;10.00;99.90;;;;;;5019226;28;20286;-43
2023/12/11 07:09:49;;;;;;;38.80;5.85;;;10.00;99.90;;;;;;5020529;28;20318;-40
2023/12/11 07:12:15;;;;;;;42.13;5.65;;;10.00;99.90;;;;;;5020003;28;20318;-41
2023/12/11 07:14:41;;;;;;;37.80;6.10;;;10.00;99.90;;;;;;5020158;28;20741;-43
2023/12/11 07:17:07;;;;;;;37.05;5.60;;;10.10;99.90;;;;;;5019088;28;20216;-38
2023/12/11 07:19:32;;;;;;;37.67;5.72;;;10.00;99.90;;;;;;5018479;28;20584;-41
2023/12/11 07:21:59;;;;;;;30.70;4.93;;;10.00;99.90;;;;;;5018683;28;20320;-42
2023/12/11 07:24:25;;;;;;;33.90;5.60;;;10.10;99.90;;;;;;5019927;28;20270;-38
2023/12/11 07:26:51;;;;;;;40.97;5.82;;;10.10;99.90;;;;;;5019855;28;20281;-40
2023/12/11 07:29:17;;;;;;;27.05;5.32;;;10.10;99.90;;;;;;5018948;28;20188;-38
2023/12/11 07:31:44;;;;;;;29.00;4.88;;;10.10;99.90;;;;;;5018195;28;20250;-39
2023/12/11 07:34:10;;;;;;;29.90;5.00;;;10.10;99.90;;;;;;5033948;28;20223;-40
2023/12/11 07:36:36;;;;;;;25.67;4.50;;;10.10;99.90;;;;;;5019633;28;20187;-44
2023/12/11 07:39:02;;;;;;;29.30;4.72;;;10.10;99.90;;;;;;5051972;28;20181;-38
2023/12/11 07:41:27;;;;;;;29.50;4.85;;;10.10;99.90;;;;;;5020771;28;20192;-41
2023/12/11 07:43:53;;;;;;;30.52;4.90;;;10.10;99.90;;;;;;5021724;28;20667;-38
2023/12/11 07:46:21;;;;;;;23.40;4.07;;;10.10;99.90;;;;;;5053656;28;20183;-38
2023/12/11 07:48:48;;;;;;;24.38;3.88;;;10.10;99.90;;;;;;5022630;28;20191;-39
2023/12/11 07:51:23;;;;;;;28.38;4.30;;;10.10;99.90;;;;;;5022457;28;20191;-41
2023/12/11 07:53:50;;;;;;;23.35;4.22;;;10.10;99.90;;;;;;5023222;28;20234;-42
2023/12/11 07:56:22;;;;;;;22.92;4.30;;;10.10;99.90;;;;;;5022930;28;20218;-40
2023/12/11 07:58:52;;;;;;;28.90;4.45;;;10.10;99.90;;;;;;5023032;28;20187;-41
2023/12/11 08:01:18;;;;;;;27.00;4.93;;;10.10;99.90;;;;;;5022262;28;20607;-38
2023/12/11 08:03:44;;;;;;;27.73;4.40;;;10.10;99.90;;;;;;5021344;28;20284;-38
2023/12/11 08:06:10;;;;;;;28.65;4.65;;;10.10;99.90;;;;;;5021381;28;20188;-38
2023/12/11 08:08:43;;;;;;;25.48;4.35;;;10.10;99.90;;;;;;5021940;28;20282;-42
2023/12/11 08:11:29;;;;;;;22.63;3.85;;;10.10;99.90;;;;;;5022798;28;20274;-41
2023/12/11 08:13:55;;;;;;;33.97;4.90;;;10.20;99.90;;;;;;5038457;28;20723;-39
2023/12/11 08:16:22;;;;;;;21.27;4.50;;;10.20;99.90;;;;;;5023416;28;20190;-41
2023/12/11 08:18:48;;;;;;;24.85;3.90;;;10.20;99.90;;;;;;5022989;28;20618;-44
2023/12/11 08:21:16;;;;;;;21.08;4.20;;;10.20;99.90;;;;;;5023372;28;20271;-38
2023/12/11 08:23:51;;;;;;;27.23;4.15;;;10.20;99.90;;;;;;5023090;28;20192;-40
2023/12/11 08:26:18;;;;;;;19.73;3.83;;;10.20;99.90;;;;;;5021358;28;20186;-41
2023/12/11 08:28:44;;;;;;;23.92;3.90;;;10.20;99.90;;;;;;5022500;28;20207;-39
2023/12/11 08:31:10;;;;;;;18.15;3.83;;;10.30;99.90;;;;;;5022444;28;20258;-44
2023/12/11 08:33:36;;;;;;;17.35;3.67;;;10.30;99.90;;;;;;5054306;28;20672;-39
2023/12/11 08:36:03;;;;;;;18.25;3.67;;;10.30;99.90;;;;;;5022801;28;20273;-41
2023/12/11 08:38:30;;;;;;;18.23;3.72;;;10.30;99.90;;;;;;5021667;28;20184;-41
2023/12/11 08:40:57;;;;;;;17.20;3.75;;;10.30;99.90;;;;;;5021545;28;20223;-37
2023/12/11 08:43:23;;;;;;;19.00;3.80;;;10.30;99.90;;;;;;5020620;28;20199;-39
2023/12/11 08:45:49;;;;;;;12.32;3.13;;;10.30;99.90;;;;;;5022038;28;20195;-44
2023/12/11 08:48:16;;;;;;;13.20;3.20;;;10.30;99.90;;;;;;5021797;28;21065;-38
2023/12/11 08:50:41;;;;;;;15.30;3.80;;;10.30;99.90;;;;;;5020940;28;20250;-38
2023/12/11 08:53:07;;;;;;;20.88;4.20;;;10.30;99.90;;;;;;5020962;28;20211;-39
2023/12/11 08:55:33;;;;;;;16.98;4.15;;;10.30;99.90;;;;;;5022264;28;20199;-42
2023/12/11 08:57:59;;;;;;;17.48;4.30;;;10.30;99.90;;;;;;5022099;28;20184;-38
2023/12/11 09:00:25;;;;;;;15.80;4.00;;;10.40;99.90;;;;;;5021056;28;20203;-44
2023/12/11 09:02:51;;;;;;;25.35;4.90;;;10.30;99.90;;;;;;5053891;28;20653;-42
2023/12/11 09:05:18;;;;;;;18.13;4.40;;;10.40;99.90;;;;;;5020726;28;20180;-40
2023/12/11 09:07:44;;;;;;;16.30;4.18;;;10.40;99.90;;;;;;5022000;28;20229;-37
2023/12/11 09:10:10;;;;;;;19.63;4.25;;;10.40;99.90;;;;;;5020894;28;20242;-41
2023/12/11 09:12:36;;;;;;;15.93;4.47;;;10.40;99.90;;;;;;5020780;28;20620;-39
2023/12/11 09:15:03;;;;;;;23.65;4.72;;;10.40;99.90;;;;;;5021435;28;20186;-46
2023/12/11 09:17:31;;;;;;;16.77;4.38;;;10.40;99.90;;;;;;5020550;28;20202;-39
2023/12/11 09:19:58;;;;;;;20.77;4.88;;;10.40;99.90;;;;;;5021259;28;20258;-38
2023/12/11 09:22:24;;;;;;;18.35;4.70;;;10.40;99.90;;;;;;5021493;28;20192;-36
2023/12/11 09:24:51;;;;;;;18.70;4.68;;;10.40;99.90;;;;;;5021898;28;20570;-41
2023/12/11 09:27:16;;;;;;;21.38;5.45;;;10.40;99.90;;;;;;5022211;28;20202;-40
2023/12/11 09:29:42;;;;;;;22.63;6.45;;;10.40;99.90;;;;;;5020061;28;20569;-43
2023/12/11 09:32:08;;;;;;;28.10;6.88;;;10.40;99.90;;;;;;5021085;28;20242;-39
2023/12/11 09:34:34;;;;;;;22.95;6.40;;;10.50;99.90;;;;;;5022186;28;20675;-41
2023/12/11 09:37:00;;;;;;;27.52;6.15;;;10.40;99.90;;;;;;5022085;28;20555;-39
2023/12/11 09:39:26;;;;;;;20.17;6.00;;;10.40;99.90;;;;;;5022057;28;20234;-40
2023/12/11 09:41:52;;;;;;;21.38;6.50;;;10.40;99.90;;;;;;5022127;28;20192;-45
2023/12/11 09:44:19;;;;;;;25.08;5.57;;;10.50;99.90;;;;;;5036816;28;20184;-38
2023/12/11 09:46:59;;;;;;;24.48;5.43;;;10.50;99.90;;;;;;5036082;28;20613;-41
2023/12/11 09:49:25;;;;;;;22.67;5.25;;;10.50;99.90;;;;;;5021204;28;20187;-43
2023/12/11 09:51:52;;;;;;;19.75;4.82;;;10.50;99.90;;;;;;5021301;28;20758;-40
2023/12/11 09:54:18;;;;;;;20.25;4.93;;;10.60;99.90;;;;;;5020446;28;20216;-44
2023/12/11 09:56:44;;;;;;;18.08;4.43;;;10.60;99.90;;;;;;5020442;28;20210;-42
2023/12/11 09:59:11;;;;;;;18.65;4.47;;;10.60;99.90;;;;;;5023434;28;20664;-45
2023/12/11 10:01:37;;;;;;;26.58;4.90;;;10.60;99.90;;;;;;5021579;28;20234;-39
2023/12/11 10:04:03;;;;;;;26.63;4.75;;;10.60;99.90;;;;;;5019173;28;20207;-38
2023/12/11 10:06:29;;;;;;;25.10;5.32;;;10.60;99.90;;;;;;5021038;28;20187;-42
2023/12/11 10:08:55;;;;;;;18.50;4.22;;;10.60;99.90;;;;;;5021442;28;20241;-42
2023/12/11 10:11:22;;;;;;;27.48;4.75;;;10.60;99.90;;;;;;5019906;28;20231;-42
2023/12/11 10:13:48;;;;;;;18.77;3.90;;;10.60;99.90;;;;;;5020061;28;20219;-39
2023/12/11 10:16:28;;;;;;;25.48;4.15;;;10.60;99.90;;;;;;5020696;28;20180;-38
2023/12/11 10:18:54;;;;;;;20.27;3.92;;;10.60;99.90;;;;;;5021014;28;20180;-42
2023/12/11 10:21:23;;;;;;;18.80;3.45;;;10.60;99.90;;;;;;5053349;28;20239;-39
2023/12/11 10:24:15;;;;;;;16.98;2.92;;;10.60;99.90;;;;;;5020879;28;20671;-37
2023/12/11 10:26:46;;;;;;;15.68;2.80;;;10.60;99.90;;;;;;5002170;28;20215;-36
2023/12/11 10:29:25;;;;;;;25.70;3.72;;;10.60;99.90;;;;;;5020444;28;20196;-40
2023/12/11 10:31:59;;;;;;;11.20;2.35;;;10.50;99.90;;;;;;5007494;28;20198;-39
2023/12/11 10:34:42;;;;;;;11.95;2.67;;;10.50;99.90;;;;;;5021324;28;20222;-39
2023/12/11 10:37:10;;;;;;;13.10;3.20;;;10.40;99.90;;;;;;5020620;28;20245;-41
2023/12/11 10:39:35;;;;;;;17.67;2.88;;;10.50;99.90;;;;;;5020860;28;20180;-42
2023/12/11 10:42:14;;;;;;;17.90;3.60;;;10.40;99.90;;;;;;5020834;28;20696;-36
2023/12/11 10:44:41;;;;;;;21.38;3.78;;;10.40;99.90;;;;;;5020810;28;20207;-40
2023/12/11 10:47:07;;;;;;;24.58;3.95;;;10.40;99.90;;;;;;5019092;28;20271;-38
2023/12/11 10:49:34;;;;;;;25.20;3.58;;;10.40;99.90;;;;;;5019432;28;20220;-43
2023/12/11 10:52:02;;;;;;;22.42;3.50;;;10.40;99.90;;;;;;5020729;28;20218;-41
2023/12/11 10:54:29;;;;;;;23.30;4.60;;;10.50;99.90;;;;;;5021265;28;20226;-37
2023/12/11 10:56:59;;;;;;;18.67;3.72;;;10.50;99.90;;;;;;5020076;28;20238;-40
2023/12/11 10:59:26;;;;;;;24.17;4.00;;;10.50;99.90;;;;;;5020379;28;20200;-43
2023/12/11 11:01:54;;;;;;;20.02;3.58;;;10.50;99.90;;;;;;5019331;28;20176;-40
2023/12/11 11:04:20;;;;;;;21.42;3.60;;;10.50;99.90;;;;;;5020039;28;20334;-42
2023/12/11 11:06:54;;;;;;;20.77;3.88;;;10.50;99.90;;;;;;5019136;28;20203;-39
2023/12/11 11:09:49;;;;;;;24.55;3.80;;;10.60;99.90;;;;;;5035854;28;20238;-47
2023/12/11 11:12:56;;;;;;;22.55;3.28;;;10.60;99.90;;;;;;5017631;28;20210;-42
2023/12/11 11:15:23;;;;;;;21.90;3.78;;;10.60;99.90;;;;;;5023559;28;20195;-42
2023/12/11 11:18:00;;;;;;;29.85;3.90;;;10.60;99.90;;;;;;5022820;28;20226;-41
2023/12/11 11:20:31;;;;;;;26.77;4.07;;;10.60;99.90;;;;;;5023740;28;20266;-45
2023/12/11 11:23:15;;;;;;;28.42;4.18;;;10.60;99.90;;;;;;5024345;28;20288;-41
2023/12/11 11:25:42;;;;;;;21.42;2.97;;;10.60;99.90;;;;;;5024462;28;20191;-39
2023/12/11 11:28:37;;;;;;;16.30;2.60;;;10.60;99.90;;;;;;5023110;28;20561;-41
2023/12/11 11:31:05;;;;;;;14.63;2.50;;;10.60;99.90;;;;;;5024431;28;20242;-38
2023/12/11 11:33:52;;;;;;;14.93;2.70;;;10.60;99.90;;;;;;5023250;28;20294;-38
2023/12/11 11:36:19;;;;;;;13.73;2.03;;;10.60;99.90;;;;;;5024664;28;20219;-39
2023/12/11 11:39:00;;;;;;;15.68;2.30;;;10.60;99.90;;;;;;5023866;28;20198;-41
2023/12/11 11:41:30;;;;;;;14.88;2.72;;;10.60;99.90;;;;;;5022328;28;20176;-35
2023/12/11 11:43:57;;;;;;;14.35;2.25;;;10.60;99.90;;;;;;5023910;28;20188;-38
2023/12/11 11:46:24;;;;;;;10.20;2.20;;;10.60;99.90;;;;;;5023288;28;20569;-37
2023/12/11 11:48:49;;;;;;;8.77;1.73;;;10.50;99.90;;;;;;5023809;28;20180;-40
2023/12/11 11:51:17;;;;;;;12.82;2.25;;;10.50;99.90;;;;;;5023070;28;20609;-40
2023/12/11 11:53:46;;;;;;;13.25;2.30;;;10.60;99.90;;;;;;5022668;28;20261;-40
2023/12/11 11:56:12;;;;;;;12.43;2.55;;;10.50;99.90;;;;;;5023325;28;20180;-38
2023/12/11 11:58:38;;;;;;;9.18;1.85;;;10.50;99.90;;;;;;5022891;28;20195;-42
2023/12/11 12:01:04;;;;;;;10.15;1.90;;;10.50;99.90;;;;;;5023232;28;20601;-48
2023/12/11 12:03:43;;;;;;;18.23;2.50;;;10.50;99.90;;;;;;5022517;28;20245;-39
2023/12/11 12:06:10;;;;;;;8.40;2.35;;;10.50;99.90;;;;;;5023697;28;20275;-38
2023/12/11 12:08:41;;;;;;;12.15;2.10;;;10.50;99.90;;;;;;5055252;28;20263;-40
2023/12/11 12:11:07;;;;;;;13.15;2.20;;;10.50;99.90;;;;;;5022670;28;20306;-41
2023/12/11 12:13:34;;;;;;;7.57;1.90;;;10.50;99.90;;;;;;5023098;28;20334;-37
2023/12/11 12:16:00;;;;;;;8.95;1.77;;;10.50;99.90;;;;;;5021844;28;20177;-37
2023/12/11 12:18:26;;;;;;;9.00;1.77;;;10.50;99.90;;;;;;5022275;28;20194;-37
2023/12/11 12:21:02;;;;;;;8.57;1.60;;;10.50;99.90;;;;;;5022801;28;20199;-40
2023/12/11 12:23:28;;;;;;;6.10;1.80;;;10.50;99.90;;;;;;5023383;28;21125;-40
2023/12/11 12:25:58;;;;;;;12.15;1.92;;;10.50;99.90;;;;;;5021688;28;20359;-38
2023/12/11 12:28:26;;;;;;;12.85;2.42;;;10.60;99.90;;;;;;5022311;28;20291;-40
2023/12/11 12:30:53;;;;;;;15.85;2.75;;;10.50;99.90;;;;;;5022608;28;20827;-37
2023/12/11 12:33:19;;;;;;;16.17;3.60;;;10.50;99.90;;;;;;5020102;28;20223;-39
2023/12/11 12:35:47;;;;;;;23.25;3.70;;;10.60;99.90;;;;;;5021333;28;20586;-40
2023/12/11 12:38:14;;;;;;;19.30;3.10;;;10.50;99.90;;;;;;5021219;28;20179;-46